createdAt,value
2019-05-11T00:01:33.486Z,45.90
2019-05-11T00:04:03.132Z,46.00
2019-05-11T00:06:32.584Z,46.50
2019-05-11T00:09:02.139Z,46.40
2019-05-11T00:11:31.664Z,47.00
2019-05-11T00:14:01.187Z,46.60
2019-05-11T00:16:30.592Z,46.70
2019-05-11T00:19:00.081Z,46.50
2019-05-11T00:21:29.525Z,46.50
2019-05-11T00:23:58.994Z,46.60
2019-05-11T00:26:29.522Z,46.40
2019-05-11T00:28:59.071Z,46.50
2019-05-11T00:31:28.536Z,46.40
2019-05-11T00:33:58.002Z,46.50
2019-05-11T00:36:28.524Z,46.40
2019-05-11T00:38:58.019Z,46.40
2019-05-11T00:41:27.476Z,46.50
2019-05-11T00:43:56.948Z,46.50
2019-05-11T00:46:26.400Z,46.40
2019-05-11T00:48:55.874Z,46.40
2019-05-11T00:51:25.331Z,46.40
2019-05-11T00:53:55.044Z,46.50
2019-05-11T00:56:24.500Z,46.40
2019-05-11T00:58:53.976Z,46.40
2019-05-11T01:01:23.899Z,46.40
2019-05-11T01:03:53.688Z,46.30
2019-05-11T01:06:23.148Z,46.40
2019-05-11T01:08:52.629Z,46.40
2019-05-11T01:11:22.076Z,46.40
2019-05-11T01:13:51.556Z,46.30
2019-05-11T01:16:21.015Z,46.30
2019-05-11T01:18:50.494Z,46.40
2019-05-11T01:21:20.011Z,46.30
2019-05-11T01:23:49.543Z,46.30
2019-05-11T01:26:18.979Z,46.40
2019-05-11T01:28:48.473Z,46.40
2019-05-11T01:31:17.914Z,46.40
2019-05-11T01:33:47.393Z,46.40
2019-05-11T01:36:16.839Z,46.40
2019-05-11T01:38:46.431Z,46.40
2019-05-11T01:41:15.872Z,46.30
2019-05-11T01:43:45.347Z,46.30
2019-05-11T01:46:14.799Z,46.30
2019-05-11T01:48:44.290Z,46.30
2019-05-11T01:51:13.748Z,46.30
2019-05-11T01:53:43.299Z,46.30
2019-05-11T01:56:12.753Z,46.30
2019-05-11T01:58:42.223Z,46.20
2019-05-11T02:01:11.681Z,46.30
2019-05-11T02:03:41.184Z,46.30
2019-05-11T02:06:10.631Z,46.50
2019-05-11T02:08:40.117Z,46.30
2019-05-11T02:11:15.729Z,46.30
2019-05-11T02:13:40.868Z,46.40
2019-05-11T02:16:11.308Z,46.40
2019-05-11T02:18:40.771Z,46.50
2019-05-11T02:21:10.238Z,46.30
2019-05-11T02:23:39.687Z,46.40
2019-05-11T02:26:09.164Z,46.40
2019-05-11T02:28:38.619Z,46.30
2019-05-11T02:31:08.098Z,46.40
2019-05-11T02:33:37.545Z,46.40
2019-05-11T02:36:07.027Z,46.30
2019-05-11T02:38:36.476Z,46.20
2019-05-11T02:41:06.015Z,46.20
2019-05-11T02:43:36.538Z,46.20
2019-05-11T02:46:06.021Z,46.30
2019-05-11T02:48:35.469Z,46.40
2019-05-11T02:51:05.012Z,46.30
2019-05-11T02:53:35.805Z,46.30
2019-05-11T02:56:05.276Z,46.30
2019-05-11T02:58:34.736Z,46.40
2019-05-11T03:01:04.461Z,46.40
2019-05-11T03:03:33.916Z,46.40
2019-05-11T03:06:03.402Z,46.40
2019-05-11T03:08:32.844Z,46.40
2019-05-11T03:11:02.800Z,46.30
2019-05-11T03:13:32.249Z,46.30
2019-05-11T03:16:02.829Z,46.30
2019-05-11T03:18:32.284Z,46.40
2019-05-11T03:21:01.764Z,46.40
2019-05-11T03:23:31.216Z,46.40
2019-05-11T03:26:00.958Z,46.40
2019-05-11T03:28:30.410Z,46.30
2019-05-11T03:30:59.893Z,46.20
2019-05-11T03:33:30.424Z,46.20
2019-05-11T03:35:59.892Z,46.20
2019-05-11T03:38:30.413Z,46.30
2019-05-11T03:40:59.891Z,46.40
2019-05-11T03:43:29.344Z,46.30
2019-05-11T03:45:58.819Z,46.30
2019-05-11T03:48:28.269Z,46.30
2019-05-11T03:50:57.750Z,46.30
2019-05-11T03:53:27.205Z,46.40
2019-05-11T03:55:56.684Z,46.30
2019-05-11T03:58:26.932Z,46.40
2019-05-11T04:00:56.511Z,46.40
2019-05-11T04:03:26.068Z,46.40
2019-05-11T04:05:55.549Z,46.40
2019-05-11T04:08:26.616Z,46.40
2019-05-11T04:10:56.207Z,46.40
2019-05-11T04:13:25.736Z,46.50
2019-05-11T04:15:55.257Z,46.70
2019-05-11T04:18:24.683Z,46.40
2019-05-11T04:20:54.167Z,46.30
2019-05-11T04:23:23.655Z,46.20
2019-05-11T04:25:53.128Z,46.10
2019-05-11T04:28:22.682Z,46.20
2019-05-11T04:30:52.206Z,46.30
2019-05-11T04:33:21.655Z,46.30
2019-05-11T04:35:51.133Z,46.30
2019-05-11T04:38:20.586Z,46.40
2019-05-11T04:40:50.061Z,46.30
2019-05-11T04:43:19.515Z,46.30
2019-05-11T04:45:48.980Z,46.70
2019-05-11T04:48:18.459Z,46.20
2019-05-11T04:50:47.909Z,46.20
2019-05-11T04:53:17.379Z,46.60
2019-05-11T04:55:46.831Z,46.70
2019-05-11T04:58:16.304Z,46.90
2019-05-11T05:00:45.761Z,46.90
2019-05-11T05:03:15.242Z,47.10
2019-05-11T05:05:44.692Z,46.90
2019-05-11T05:08:14.175Z,46.70
2019-05-11T05:10:43.636Z,46.60
2019-05-11T05:13:13.115Z,46.70
2019-05-11T05:15:42.660Z,46.70
2019-05-11T05:18:12.132Z,46.70
2019-05-11T05:20:43.833Z,46.70
2019-05-11T05:23:12.851Z,46.70
2019-05-11T05:25:42.305Z,46.50
2019-05-11T05:28:12.060Z,46.60
2019-05-11T05:30:41.512Z,46.60
2019-05-11T05:33:10.986Z,46.50
2019-05-11T05:35:40.442Z,46.60
2019-05-11T05:38:09.920Z,47.00
2019-05-11T05:40:39.382Z,47.10
2019-05-11T05:43:08.857Z,47.30
2019-05-11T05:45:38.308Z,47.70
2019-05-11T05:48:07.833Z,47.50
2019-05-11T05:50:37.278Z,48.00
2019-05-11T05:53:06.761Z,48.50
2019-05-11T05:55:36.211Z,48.40
2019-05-11T05:58:05.690Z,48.80
2019-05-11T06:00:35.150Z,48.70
2019-05-11T06:03:04.676Z,48.90
2019-05-11T06:05:34.207Z,49.10
2019-05-11T06:08:03.687Z,49.10
2019-05-11T06:10:33.144Z,49.10
2019-05-11T06:13:02.627Z,49.00
2019-05-11T06:15:32.131Z,49.00
2019-05-11T06:18:01.616Z,49.00
2019-05-11T06:20:31.072Z,48.80
2019-05-11T06:23:00.583Z,48.90
2019-05-11T06:25:30.114Z,49.70
2019-05-11T06:27:59.611Z,49.40
2019-05-11T06:30:29.067Z,49.20
2019-05-11T06:32:58.578Z,49.40
2019-05-11T06:35:28.016Z,49.70
2019-05-11T06:37:57.756Z,48.00
2019-05-11T06:40:28.687Z,49.20
2019-05-11T06:42:58.326Z,49.20
2019-05-11T06:45:27.783Z,49.30
2019-05-11T06:47:57.259Z,49.10
2019-05-11T06:50:26.722Z,49.20
2019-05-11T06:52:56.195Z,49.10
2019-05-11T06:55:25.654Z,49.10
2019-05-11T06:57:55.136Z,49.10
2019-05-11T07:00:24.594Z,49.30
2019-05-11T07:02:54.055Z,49.30
2019-05-11T07:05:23.503Z,49.30
2019-05-11T07:07:52.964Z,49.30
2019-05-11T07:10:22.491Z,49.90
2019-05-11T07:12:52.024Z,49.80
2019-05-11T07:15:21.497Z,49.80
2019-05-11T07:17:50.961Z,49.70
2019-05-11T07:20:20.442Z,49.60
2019-05-11T07:22:49.901Z,49.60
2019-05-11T07:25:19.384Z,49.60
2019-05-11T07:27:48.833Z,49.80
2019-05-11T07:30:18.387Z,50.50
2019-05-11T07:32:48.223Z,50.40
2019-05-11T07:35:18.905Z,50.40
2019-05-11T07:37:48.455Z,50.40
2019-05-11T07:40:18.762Z,50.40
2019-05-11T07:42:48.745Z,50.30
2019-05-11T07:45:19.664Z,50.10
2019-05-11T07:47:49.124Z,50.00
2019-05-11T07:50:18.668Z,49.90
2019-05-11T07:52:48.423Z,49.90
2019-05-11T07:55:19.204Z,49.90
2019-05-11T07:57:48.701Z,49.80
2019-05-11T08:00:18.744Z,49.70
2019-05-11T08:02:48.251Z,49.80
2019-05-11T08:05:18.143Z,49.80
2019-05-11T08:07:48.302Z,49.90
2019-05-11T08:10:18.551Z,49.80
2019-05-11T08:12:48.354Z,49.90
2019-05-11T08:15:18.504Z,49.90
2019-05-11T08:17:48.970Z,49.80
2019-05-11T08:20:18.917Z,49.80
2019-05-11T08:22:48.503Z,49.80
2019-05-11T08:25:18.330Z,49.70
2019-05-11T08:27:48.545Z,49.70
2019-05-11T08:30:19.034Z,49.70
2019-05-11T08:32:49.388Z,49.60
2019-05-11T08:35:19.496Z,49.70
2019-05-11T08:37:48.943Z,49.60
2019-05-11T08:40:19.065Z,49.70
2019-05-11T08:42:48.522Z,49.60
2019-05-11T08:45:24.052Z,49.50
2019-05-11T08:47:49.149Z,49.60
2019-05-11T08:50:18.997Z,49.40
2019-05-11T08:52:48.451Z,49.40
2019-05-11T08:55:19.038Z,49.40
2019-05-11T08:57:49.655Z,49.40
2019-05-11T09:00:19.448Z,49.50
2019-05-11T09:02:50.819Z,49.50
2019-05-11T09:05:19.987Z,49.80
2019-05-11T09:07:49.603Z,49.50
2019-05-11T09:10:19.083Z,49.50
2019-05-11T09:12:48.914Z,50.20
2019-05-11T09:15:32.421Z,49.60
2019-05-11T09:17:50.716Z,49.50
2019-05-11T09:20:21.215Z,49.50
2019-05-11T09:22:50.665Z,49.60
2019-05-11T09:25:20.123Z,49.60
2019-05-11T09:27:49.638Z,49.50
2019-05-11T09:30:19.434Z,49.50
2019-05-11T09:32:48.891Z,49.50
2019-05-11T09:35:19.042Z,49.50
2019-05-11T09:37:49.763Z,49.40
2019-05-11T09:40:19.486Z,49.30
2019-05-11T09:42:48.944Z,49.20
2019-05-11T09:45:18.925Z,49.20
2019-05-11T09:47:48.453Z,49.30
2019-05-11T09:50:19.527Z,49.20
2019-05-11T09:52:49.265Z,49.30
2019-05-11T09:55:19.151Z,49.30
2019-05-11T09:57:49.022Z,49.30
2019-05-11T10:00:19.608Z,49.40
2019-05-11T10:02:49.156Z,49.40
2019-05-11T10:05:18.997Z,49.40
2019-05-11T10:07:48.704Z,49.40
2019-05-11T10:10:18.744Z,49.40
2019-05-11T10:12:52.840Z,49.30
2019-05-11T10:15:21.500Z,49.30
2019-05-11T10:17:50.947Z,49.30
2019-05-11T10:20:20.575Z,49.40
2019-05-11T10:22:50.106Z,49.40
2019-05-11T10:25:19.547Z,49.40
2019-05-11T10:27:49.238Z,49.40
2019-05-11T10:30:20.580Z,49.30
2019-05-11T10:32:50.037Z,49.30
2019-05-11T10:35:19.487Z,49.10
2019-05-11T10:37:48.963Z,49.10
2019-05-11T10:40:19.099Z,49.10
2019-05-11T10:42:48.803Z,49.10
2019-05-11T10:45:18.292Z,49.20
2019-05-11T10:47:48.914Z,49.20
2019-05-11T10:50:18.975Z,49.10
2019-05-11T10:52:48.596Z,49.20
2019-05-11T10:55:19.333Z,49.20
2019-05-11T10:57:49.215Z,49.20
2019-05-11T11:00:19.216Z,49.30
2019-05-11T11:02:48.691Z,51.20
2019-05-11T11:05:18.823Z,50.70
2019-05-11T11:07:48.690Z,50.80
2019-05-11T11:10:18.570Z,51.30
2019-05-11T11:12:49.012Z,51.00
2019-05-11T11:15:19.856Z,50.70
2019-05-11T11:17:49.311Z,51.40
2019-05-11T11:20:19.100Z,51.60
2019-05-11T11:22:48.656Z,51.70
2019-05-11T11:25:18.312Z,51.70
2019-05-11T11:27:48.599Z,51.60
2019-05-11T11:30:19.279Z,51.60
2019-05-11T11:32:48.758Z,51.60
2019-05-11T11:35:18.864Z,51.70
2019-05-11T11:37:50.031Z,52.00
2019-05-11T11:40:19.724Z,51.80
2019-05-11T11:42:49.179Z,51.80
2019-05-11T11:45:19.072Z,51.80
2019-05-11T11:47:49.348Z,51.80
2019-05-11T11:50:20.326Z,51.60
2019-05-11T11:52:49.790Z,51.60
2019-05-11T11:55:19.309Z,51.60
2019-05-11T11:57:50.420Z,51.40
2019-05-11T12:00:20.647Z,51.40
2019-05-11T12:02:50.271Z,51.10
2019-05-11T12:05:19.734Z,51.10
2019-05-11T12:07:49.332Z,50.90
2019-05-11T12:10:19.543Z,51.00
2019-05-11T12:12:49.031Z,51.00
2019-05-11T12:15:18.631Z,51.40
2019-05-11T12:17:48.451Z,51.40
2019-05-11T12:20:19.006Z,51.20
2019-05-11T12:22:48.523Z,51.20
2019-05-11T12:25:18.710Z,51.50
2019-05-11T12:27:49.082Z,51.40
2019-05-11T12:30:20.098Z,51.70
2019-05-11T12:32:50.346Z,51.50
2019-05-11T12:35:19.882Z,51.90
2019-05-11T12:37:49.345Z,51.40
2019-05-11T12:40:19.447Z,52.10
2019-05-11T12:42:49.222Z,51.90
2019-05-11T12:45:19.560Z,51.90
2019-05-11T12:47:49.123Z,51.60
2019-05-11T12:50:19.693Z,51.40
2019-05-11T12:52:49.143Z,51.30
2019-05-11T12:55:19.451Z,51.30
2019-05-11T12:57:48.912Z,51.30
2019-05-11T13:00:19.767Z,51.30
2019-05-11T13:02:50.199Z,51.20
2019-05-11T13:05:19.711Z,51.30
2019-05-11T13:07:49.166Z,51.30
2019-05-11T13:10:18.760Z,51.40
2019-05-11T13:12:49.236Z,51.30
2019-05-11T13:15:19.025Z,51.40
2019-05-11T13:17:49.172Z,51.40
2019-05-11T13:20:19.337Z,51.80
2019-05-11T13:22:49.075Z,51.60
2019-05-11T13:25:18.587Z,51.50
2019-05-11T13:27:49.247Z,51.60
2019-05-11T13:30:18.874Z,51.40
2019-05-11T13:32:49.066Z,51.50
2019-05-11T13:35:18.751Z,51.40
2019-05-11T13:37:48.247Z,51.40
2019-05-11T13:40:18.668Z,51.30
2019-05-11T13:42:49.027Z,51.30
2019-05-11T13:45:18.803Z,51.30
2019-05-11T13:47:54.707Z,51.30
2019-05-11T13:50:19.844Z,51.30
2019-05-11T13:52:49.307Z,51.20
2019-05-11T13:55:18.771Z,51.20
2019-05-11T13:57:48.712Z,51.20
2019-05-11T14:00:19.491Z,51.20
2019-05-11T14:02:49.094Z,51.20
2019-05-11T14:05:18.639Z,51.20
2019-05-11T14:07:48.449Z,51.70
2019-05-11T14:10:18.349Z,51.10
2019-05-11T14:12:48.026Z,51.20
2019-05-11T14:15:19.117Z,51.20
2019-05-11T14:18:04.395Z,51.20
2019-05-11T14:20:20.893Z,51.40
2019-05-11T14:22:50.504Z,51.20
2019-05-11T14:25:19.959Z,51.20
2019-05-11T14:27:49.955Z,51.20
2019-05-11T14:30:20.073Z,51.20
2019-05-11T14:32:49.666Z,51.30
2019-05-11T14:35:19.171Z,51.30
2019-05-11T14:37:49.572Z,51.30
2019-05-11T14:40:21.520Z,51.40
2019-05-11T14:42:51.000Z,51.40
2019-05-11T14:45:20.711Z,51.40
2019-05-11T14:47:50.152Z,51.40
2019-05-11T14:50:20.251Z,51.40
2019-05-11T14:52:49.859Z,51.40
2019-05-11T14:55:19.597Z,51.40
2019-05-11T14:57:49.442Z,51.40
2019-05-11T15:00:20.700Z,51.40
2019-05-11T15:02:50.241Z,51.30
2019-05-11T15:05:21.332Z,51.40
2019-05-11T15:07:52.866Z,51.40
2019-05-11T15:10:22.280Z,51.30
2019-05-11T15:12:52.034Z,51.40
2019-05-11T15:15:21.905Z,51.40
2019-05-11T15:17:51.371Z,51.40
2019-05-11T15:20:21.092Z,51.40
2019-05-11T15:22:50.899Z,51.40
2019-05-11T15:25:21.317Z,51.40
2019-05-11T15:27:50.751Z,51.40
2019-05-11T15:30:20.464Z,51.40
2019-05-11T15:32:50.247Z,51.30
2019-05-11T15:35:19.709Z,51.40
2019-05-11T15:37:49.403Z,51.40
2019-05-11T15:40:20.759Z,51.40
2019-05-11T15:42:50.213Z,51.50
2019-05-11T15:45:20.527Z,51.50
2019-05-11T15:47:49.979Z,51.80
2019-05-11T15:50:20.679Z,51.80
2019-05-11T15:52:50.861Z,52.00
2019-05-11T15:55:21.661Z,51.90
2019-05-11T15:57:51.139Z,52.30
2019-05-11T16:00:20.927Z,52.70
2019-05-11T16:02:50.408Z,50.50
2019-05-11T16:05:19.928Z,51.80
2019-05-11T16:07:49.639Z,51.80
2019-05-11T16:10:19.199Z,51.60
2019-05-11T16:12:49.105Z,51.50
2019-05-11T16:15:19.740Z,51.40
2019-05-11T16:17:49.895Z,51.40
2019-05-11T16:20:20.972Z,51.50
2019-05-11T16:22:50.531Z,51.50
2019-05-11T16:25:20.627Z,51.50
2019-05-11T16:27:50.112Z,51.50
2019-05-11T16:30:21.591Z,51.50
2019-05-11T16:32:51.432Z,51.60
2019-05-11T16:35:21.478Z,51.80
2019-05-11T16:37:51.420Z,51.80
2019-05-11T16:40:21.248Z,51.70
2019-05-11T16:42:50.868Z,51.80
2019-05-11T16:45:23.879Z,52.10
2019-05-11T16:47:52.297Z,52.00
2019-05-11T16:50:22.014Z,52.90
2019-05-11T16:52:51.491Z,52.60
2019-05-11T16:55:21.652Z,52.30
2019-05-11T16:57:51.271Z,52.20
2019-05-11T17:00:21.111Z,52.20
2019-05-11T17:02:50.837Z,52.10
2019-05-11T17:05:26.547Z,52.10
2019-05-11T17:07:51.378Z,52.10
2019-05-11T17:10:20.900Z,52.10
2019-05-11T17:12:50.383Z,52.00
2019-05-11T17:15:19.851Z,52.00
2019-05-11T17:17:49.736Z,52.00
2019-05-11T17:20:19.370Z,52.00
2019-05-11T17:22:49.528Z,52.00
2019-05-11T17:25:19.656Z,51.90
2019-05-11T17:27:49.917Z,51.90
2019-05-11T17:30:20.059Z,51.90
2019-05-11T17:32:50.010Z,52.00
2019-05-11T17:35:20.149Z,52.00
2019-05-11T17:37:49.622Z,51.90
2019-05-11T17:40:23.174Z,52.00
2019-05-11T17:42:53.651Z,52.10
2019-05-11T17:45:21.556Z,52.10
2019-05-11T17:47:51.218Z,52.20
2019-05-11T17:50:20.833Z,52.40
2019-05-11T17:52:50.304Z,52.50
2019-05-11T17:55:19.759Z,52.60
2019-05-11T17:57:53.193Z,52.70
2019-05-11T18:00:21.424Z,52.60
2019-05-11T18:02:50.939Z,52.60
2019-05-11T18:05:20.424Z,52.60
2019-05-11T18:07:49.871Z,52.50
2019-05-11T18:10:19.473Z,52.80
2019-05-11T18:12:49.899Z,52.90
2019-05-11T18:15:19.603Z,52.90
2019-05-11T18:17:49.219Z,52.70
2019-05-11T18:20:21.694Z,52.70
2019-05-11T18:22:50.453Z,52.70
2019-05-11T18:25:19.971Z,52.70
2019-05-11T18:27:49.419Z,52.70
2019-05-11T18:30:19.024Z,52.60
2019-05-11T18:32:49.219Z,52.60
2019-05-11T18:35:19.902Z,52.60
2019-05-11T18:37:49.495Z,52.50
2019-05-11T18:40:20.053Z,52.80
2019-05-11T18:42:49.548Z,52.60
2019-05-11T18:45:19.443Z,52.50
2019-05-11T18:47:49.397Z,52.50
2019-05-11T18:50:30.075Z,52.50
2019-05-11T18:52:50.161Z,52.50
2019-05-11T18:55:19.638Z,52.50
2019-05-11T18:57:49.469Z,52.50
2019-05-11T19:00:19.540Z,52.50
2019-05-11T19:02:49.633Z,52.50
2019-05-11T19:05:19.345Z,52.50
2019-05-11T19:07:48.785Z,52.60
2019-05-11T19:10:18.564Z,52.50
2019-05-11T19:12:48.995Z,52.60
2019-05-11T19:15:20.535Z,52.50
2019-05-11T19:17:50.001Z,52.40
2019-05-11T19:20:19.692Z,52.60
2019-05-11T19:22:49.144Z,52.90
2019-05-11T19:25:18.632Z,52.70
2019-05-11T19:27:50.716Z,52.60
2019-05-11T19:30:20.355Z,52.50
2019-05-11T19:32:50.884Z,52.60
2019-05-11T19:35:21.001Z,52.50
2019-05-11T19:37:50.971Z,52.50
2019-05-11T19:40:20.437Z,52.50
2019-05-11T19:42:59.039Z,52.40
2019-05-11T19:45:29.367Z,52.30
2019-05-11T19:47:59.153Z,52.70
2019-05-11T19:50:28.698Z,52.20
2019-05-11T19:52:58.190Z,52.40
2019-05-11T19:55:28.533Z,52.40
2019-05-11T19:57:58.343Z,52.40
2019-05-11T20:00:27.868Z,52.40
2019-05-11T20:02:58.588Z,52.40
2019-05-11T20:05:28.816Z,52.90
2019-05-11T20:07:58.886Z,53.10
2019-05-11T20:10:29.642Z,52.80
2019-05-11T20:12:59.103Z,52.70
2019-05-11T20:15:29.570Z,52.40
2019-05-11T20:17:59.025Z,52.20
2019-05-11T20:20:28.663Z,52.20
2019-05-11T20:22:58.578Z,52.20
2019-05-11T20:25:28.858Z,52.00
2019-05-11T20:27:58.713Z,52.00
2019-05-11T20:30:29.236Z,52.20
2019-05-11T20:32:58.693Z,52.20
2019-05-11T20:35:28.146Z,51.90
2019-05-11T20:37:58.253Z,51.90
2019-05-11T20:40:28.707Z,52.00
2019-05-11T20:42:58.774Z,52.00
2019-05-11T20:45:28.938Z,52.70
2019-05-11T20:47:58.401Z,52.60
2019-05-11T20:50:27.853Z,52.50
2019-05-11T20:52:58.204Z,52.70
2019-05-11T20:55:28.616Z,52.20
2019-05-11T20:57:58.493Z,52.10
2019-05-11T21:00:28.712Z,52.10
2019-05-11T21:02:58.819Z,52.10
2019-05-11T21:05:29.175Z,52.20
2019-05-11T21:07:58.699Z,52.30
2019-05-11T21:10:29.255Z,52.40
2019-05-11T21:12:58.727Z,52.30
2019-05-11T21:15:28.391Z,52.40
2019-05-11T21:17:58.617Z,52.40
2019-05-11T21:20:28.709Z,52.50
2019-05-11T21:22:58.468Z,52.50
2019-05-11T21:25:28.747Z,52.50
2019-05-11T21:27:58.386Z,52.70
2019-05-11T21:30:27.855Z,52.90
2019-05-11T21:32:58.222Z,53.10
2019-05-11T21:35:28.297Z,52.60
2019-05-11T21:37:58.137Z,52.60
2019-05-11T21:40:29.046Z,52.40
2019-05-11T21:42:58.675Z,52.30
2019-05-11T21:45:28.510Z,52.40
2019-05-11T21:47:58.221Z,52.50
2019-05-11T21:50:28.003Z,52.40
2019-05-11T21:52:58.977Z,52.60
2019-05-11T21:55:29.305Z,52.60
2019-05-11T21:57:58.946Z,52.50
2019-05-11T22:00:30.617Z,52.50
2019-05-11T22:03:01.702Z,52.50
2019-05-11T22:05:31.230Z,52.50
2019-05-11T22:08:00.704Z,52.50
2019-05-11T22:10:30.156Z,52.60
2019-05-11T22:12:59.627Z,52.50
2019-05-11T22:15:30.986Z,52.70
2019-05-11T22:18:00.242Z,52.70
2019-05-11T22:20:29.700Z,52.60
2019-05-11T22:22:59.175Z,52.50
2019-05-11T22:25:28.892Z,52.40
2019-05-11T22:27:58.883Z,52.30
2019-05-11T22:30:28.355Z,52.40
2019-05-11T22:32:58.282Z,52.50
2019-05-11T22:35:28.664Z,52.60
2019-05-11T22:37:58.275Z,52.60
2019-05-11T22:40:28.253Z,53.50
2019-05-11T22:43:01.222Z,53.60
2019-05-11T22:45:29.919Z,53.40
2019-05-11T22:47:59.370Z,53.10
2019-05-11T22:50:29.242Z,52.80
2019-05-11T22:52:58.799Z,52.80
2019-05-11T22:55:28.388Z,52.70
2019-05-11T22:57:58.056Z,53.00
2019-05-11T23:00:39.806Z,52.80
2019-05-11T23:03:10.979Z,52.90
2019-05-11T23:05:41.863Z,52.80
2019-05-11T23:08:11.416Z,53.40
2019-05-11T23:10:40.873Z,52.60
2019-05-11T23:13:11.277Z,52.50
2019-05-11T23:15:41.669Z,52.90
2019-05-11T23:18:11.228Z,53.00
2019-05-11T23:20:40.752Z,53.60
2019-05-11T23:23:10.228Z,53.00
2019-05-11T23:25:39.681Z,52.90
2019-05-11T23:28:09.155Z,52.90
2019-05-11T23:30:39.074Z,52.90
2019-05-11T23:33:08.612Z,52.90
2019-05-11T23:35:38.342Z,52.80
2019-05-11T23:38:08.041Z,52.90
2019-05-11T23:40:38.121Z,52.80
2019-05-11T23:43:09.024Z,52.80
2019-05-11T23:45:38.921Z,52.70
2019-05-11T23:48:09.343Z,52.60
2019-05-11T23:50:38.907Z,52.70
2019-05-11T23:53:10.321Z,52.60
2019-05-11T23:55:39.523Z,52.60
2019-05-11T23:58:08.979Z,52.30
